Terminal Aerodrome Forecast
Issued by NWS Charleston, WV

Current Version | Previous Version | Graphics & Text | Print | Product List | Glossary On
Versions: 1 2 3 4 5 6 7 8 9 10 11 12 13 14 15 16 17 18 19 20 21 22 23 24 25 26 27 28 29 30
000
FTUS41 KRLX 010857 AAA
TAFHTS
TAF AMD
KHTS 010857Z 0109/0206 VRB03KT 6SM BR SCT005 BKN035
     FM011100 00000KT 6SM BR SCT005 SCT035
     FM011300 25006KT P6SM SCT035
     FM020100 VRB03KT P6SM SCT050
     FM020500 00000KT 6SM BR BKN080=

USA.gov is the U.S. government's official web portal to all federal, state and local government web resources and services.